In Rescue
 
Open Full Screen Window  High Contrast Mode
Wind Gusting 00 knots
08
October 18, 2021 11:51 AM CDT
Weather Information
Wind Direction
  170 °
Wind Speed
  08 kt (9 mph)
Wind Gust
  00 kt (0 mph)
Altimeter
29.94 in
Visibility
10 SM
Temperature
18° C
64° F
Dewpoint
05° C
41° F
Humidity
43%
1hr Rain Fall
00.00 in.
24hr Rain Fall
00.00 in.
Sky Condition
Clear
VFR

METAR KLYV 181651Z AUTO 17008KT 10SM CLR 18/05 A2994 RMK AO2

FAA Disclaimer: The data displayed is for advisory purposes only and is not to be used for flight planning or operations.